createdAt,value
2023-05-14T00:01:32.291Z,5.85
2023-05-14T00:03:59.245Z,4.38
2023-05-14T00:06:26.328Z,3.85
2023-05-14T00:08:53.240Z,4.78
2023-05-14T00:11:20.905Z,3.97
2023-05-14T00:13:47.928Z,4.32
2023-05-14T00:16:14.940Z,5.13
2023-05-14T00:18:42.195Z,5.38
2023-05-14T00:21:09.223Z,5.18
2023-05-14T00:23:36.221Z,4.38
2023-05-14T00:26:03.483Z,10.93
2023-05-14T00:28:30.381Z,5.55
2023-05-14T00:30:57.368Z,4.85
2023-05-14T00:33:24.348Z,4.38
2023-05-14T00:35:51.687Z,4.90
2023-05-14T00:38:19.545Z,5.40
2023-05-14T00:40:51.236Z,5.28
2023-05-14T00:43:19.674Z,4.45
2023-05-14T00:45:48.044Z,6.07
2023-05-14T00:48:15.026Z,4.80
2023-05-14T00:50:42.843Z,5.13
2023-05-14T00:53:11.657Z,5.47
2023-05-14T00:55:40.512Z,6.13
2023-05-14T00:58:12.350Z,6.03
2023-05-14T01:00:40.326Z,5.90
2023-05-14T01:03:08.238Z,5.05
2023-05-14T01:05:58.903Z,6.18
2023-05-14T01:08:50.619Z,5.25
2023-05-14T01:11:44.220Z,6.50
2023-05-14T01:14:36.583Z,5.03
2023-05-14T01:17:06.368Z,6.18
2023-05-14T01:19:44.575Z,6.50
2023-05-14T01:22:12.473Z,4.95
2023-05-14T01:24:39.987Z,4.70
2023-05-14T01:27:13.330Z,5.63
2023-05-14T01:29:45.283Z,5.20
2023-05-14T01:32:15.419Z,5.47
2023-05-14T01:34:44.071Z,6.50
2023-05-14T01:37:12.759Z,4.50
2023-05-14T01:39:41.731Z,5.75
2023-05-14T01:42:09.907Z,6.15
2023-05-14T01:44:36.971Z,5.80
2023-05-14T01:47:04.063Z,5.72
2023-05-14T01:49:31.033Z,8.68
2023-05-14T01:51:57.939Z,7.85
2023-05-14T01:54:24.928Z,6.63
2023-05-14T01:56:51.871Z,7.50
2023-05-14T01:59:18.848Z,6.22
2023-05-14T02:01:45.956Z,5.18
2023-05-14T02:04:13.004Z,6.25
2023-05-14T02:06:41.909Z,5.32
2023-05-14T02:09:08.838Z,6.53
2023-05-14T02:11:35.791Z,6.35
2023-05-14T02:14:02.874Z,6.30
2023-05-14T02:16:29.938Z,7.65
2023-05-14T02:18:57.009Z,5.45
2023-05-14T02:21:24.511Z,6.85
2023-05-14T02:23:51.582Z,5.80
2023-05-14T02:26:18.687Z,6.82
2023-05-14T02:28:45.877Z,7.47
2023-05-14T02:31:14.430Z,7.55
2023-05-14T02:33:42.155Z,6.45
2023-05-14T02:36:09.216Z,7.35
2023-05-14T02:38:36.216Z,6.35
2023-05-14T02:41:03.270Z,7.25
2023-05-14T02:43:30.226Z,7.22
2023-05-14T02:45:57.127Z,6.88
2023-05-14T02:48:24.215Z,7.03
2023-05-14T02:50:52.140Z,9.07
2023-05-14T02:53:19.168Z,6.75
2023-05-14T02:55:46.221Z,7.72
2023-05-14T02:58:13.257Z,7.10
2023-05-14T03:00:40.329Z,8.40
2023-05-14T03:03:07.917Z,6.18
2023-05-14T03:05:35.258Z,8.52
2023-05-14T03:08:02.384Z,7.15
2023-05-14T03:10:29.369Z,7.80
2023-05-14T03:12:56.334Z,8.02
2023-05-14T03:15:23.320Z,7.15
2023-05-14T03:17:50.341Z,6.60
2023-05-14T03:20:17.477Z,6.90
2023-05-14T03:22:44.569Z,5.80
2023-05-14T03:25:11.602Z,7.05
2023-05-14T03:27:38.828Z,6.40
2023-05-14T03:30:06.412Z,6.38
2023-05-14T03:32:33.482Z,6.22
2023-05-14T03:35:00.544Z,6.00
2023-05-14T03:37:27.456Z,6.93
2023-05-14T03:39:54.389Z,6.30
2023-05-14T03:42:21.523Z,6.72
2023-05-14T03:44:48.451Z,6.85
2023-05-14T03:47:15.839Z,6.85
2023-05-14T03:49:42.849Z,5.32
2023-05-14T03:52:11.827Z,6.53
2023-05-14T03:54:38.829Z,8.30
2023-05-14T03:57:05.923Z,6.13
2023-05-14T03:59:32.961Z,6.90
2023-05-14T04:01:59.968Z,7.13
2023-05-14T04:04:26.977Z,5.72
2023-05-14T04:06:53.977Z,5.78
2023-05-14T04:09:20.968Z,6.60
2023-05-14T04:11:47.969Z,5.43
2023-05-14T04:14:15.064Z,5.38
2023-05-14T04:16:43.236Z,5.72
2023-05-14T04:19:11.209Z,5.00
2023-05-14T04:21:38.290Z,5.85
2023-05-14T04:24:05.567Z,7.72
2023-05-14T04:26:32.496Z,5.30
2023-05-14T04:29:02.941Z,5.07
2023-05-14T04:31:30.495Z,5.40
2023-05-14T04:33:57.489Z,5.75
2023-05-14T04:36:24.930Z,5.68
2023-05-14T04:38:51.902Z,5.32
2023-05-14T04:41:18.836Z,5.18
2023-05-14T04:43:47.259Z,4.93
2023-05-14T04:46:14.300Z,7.30
2023-05-14T04:48:41.828Z,6.50
2023-05-14T04:51:08.749Z,5.97
2023-05-14T04:53:35.747Z,6.45
2023-05-14T04:56:02.912Z,5.30
2023-05-14T04:58:33.749Z,5.93
2023-05-14T05:01:02.808Z,5.93
2023-05-14T05:03:29.889Z,7.68
2023-05-14T05:05:56.967Z,5.68
2023-05-14T05:08:24.052Z,8.82
2023-05-14T05:10:50.966Z,5.57
2023-05-14T05:13:17.841Z,4.97
2023-05-14T05:15:44.966Z,5.25
2023-05-14T05:18:11.951Z,7.30
2023-05-14T05:20:39.014Z,5.95
2023-05-14T05:23:06.023Z,3.10
2023-05-14T05:25:33.027Z,5.18
2023-05-14T05:28:00.008Z,6.32
2023-05-14T05:30:26.976Z,5.13
2023-05-14T05:32:54.105Z,5.78
2023-05-14T05:35:21.093Z,5.75
2023-05-14T05:37:48.069Z,8.65
2023-05-14T05:40:15.756Z,6.88
2023-05-14T05:42:42.837Z,6.72
2023-05-14T05:45:10.208Z,7.55
2023-05-14T05:47:37.190Z,8.07
2023-05-14T05:50:04.610Z,6.03
2023-05-14T05:52:31.644Z,7.45
2023-05-14T05:54:58.728Z,6.72
2023-05-14T05:57:27.177Z,5.93
2023-05-14T05:59:54.183Z,7.18
2023-05-14T06:02:21.231Z,9.02
2023-05-14T06:04:48.738Z,6.85
2023-05-14T06:07:15.671Z,10.82
2023-05-14T06:09:42.675Z,7.35
2023-05-14T06:12:09.752Z,11.63
2023-05-14T06:14:36.762Z,10.50
2023-05-14T06:17:03.782Z,6.47
2023-05-14T06:19:30.722Z,7.10
2023-05-14T06:21:57.700Z,7.38
2023-05-14T06:24:24.707Z,5.53
2023-05-14T06:26:51.753Z,6.30
2023-05-14T06:29:18.724Z,5.90
2023-05-14T06:31:46.505Z,7.00
2023-05-14T06:34:13.536Z,5.22
2023-05-14T06:36:40.725Z,5.25
2023-05-14T06:39:07.652Z,5.13
2023-05-14T06:41:34.574Z,5.70
2023-05-14T06:44:01.588Z,5.80
2023-05-14T06:46:28.518Z,5.40
2023-05-14T06:48:57.979Z,4.57
2023-05-14T06:51:26.336Z,6.07
2023-05-14T06:53:54.273Z,4.07
2023-05-14T06:56:22.107Z,3.90
2023-05-14T06:58:49.180Z,4.70
2023-05-14T07:01:16.917Z,4.10
2023-05-14T07:03:44.028Z,5.50
2023-05-14T07:06:12.512Z,6.28
2023-05-14T07:08:40.858Z,4.05
2023-05-14T07:11:07.831Z,4.30
2023-05-14T07:13:34.770Z,5.40
2023-05-14T07:16:01.700Z,3.50
2023-05-14T07:18:28.790Z,4.13
2023-05-14T07:20:55.756Z,3.25
2023-05-14T07:23:22.843Z,7.10
2023-05-14T07:25:49.781Z,6.72
2023-05-14T07:28:16.723Z,5.25
2023-05-14T07:30:43.718Z,4.80
2023-05-14T07:33:10.760Z,5.25
2023-05-14T07:35:37.730Z,5.80
2023-05-14T07:38:05.804Z,8.60
2023-05-14T07:40:32.809Z,4.75
2023-05-14T07:42:59.809Z,8.52
2023-05-14T07:45:26.772Z,6.20
2023-05-14T07:47:53.875Z,6.40
2023-05-14T07:50:21.135Z,6.35
2023-05-14T07:52:48.154Z,6.32
2023-05-14T07:55:15.224Z,5.60
2023-05-14T07:57:42.112Z,6.72
2023-05-14T08:00:09.405Z,5.13
2023-05-14T08:02:39.770Z,10.27
2023-05-14T08:05:07.283Z,5.78
2023-05-14T08:07:34.799Z,4.50
2023-05-14T08:10:02.010Z,5.68
2023-05-14T08:12:30.448Z,6.00
2023-05-14T08:14:57.362Z,4.57
2023-05-14T08:17:24.373Z,6.60
2023-05-14T08:19:51.369Z,4.38
2023-05-14T08:22:18.322Z,4.72
2023-05-14T08:24:45.254Z,3.85
2023-05-14T08:27:12.182Z,7.25
2023-05-14T08:29:39.171Z,5.13
2023-05-14T08:32:19.364Z,5.63
2023-05-14T08:34:50.118Z,4.97
2023-05-14T08:37:17.316Z,5.55
2023-05-14T08:39:44.496Z,4.63
2023-05-14T08:42:13.854Z,3.60
2023-05-14T08:45:02.587Z,5.85
2023-05-14T08:47:30.822Z,7.28
2023-05-14T08:50:06.503Z,5.00
2023-05-14T08:52:34.656Z,3.20
2023-05-14T08:55:05.285Z,3.42
2023-05-14T08:57:34.246Z,4.00
2023-05-14T09:00:08.190Z,3.53
2023-05-14T09:02:36.746Z,3.47
2023-05-14T09:05:04.307Z,2.55
2023-05-14T09:07:31.718Z,4.55
2023-05-14T09:09:59.219Z,5.38
2023-05-14T09:12:26.237Z,5.05
2023-05-14T09:14:53.393Z,3.33
2023-05-14T09:17:20.590Z,4.10
2023-05-14T09:19:52.949Z,4.95
2023-05-14T09:22:20.883Z,2.78
2023-05-14T09:25:03.539Z,3.47
2023-05-14T09:27:32.040Z,3.42
2023-05-14T09:30:13.149Z,2.35
2023-05-14T09:32:44.262Z,3.35
2023-05-14T09:35:18.989Z,2.88
2023-05-14T09:37:55.661Z,3.50
2023-05-14T09:40:24.320Z,5.00
2023-05-14T09:42:51.818Z,5.05
2023-05-14T09:45:18.929Z,3.90
2023-05-14T09:47:46.094Z,3.28
2023-05-14T09:50:13.537Z,3.33
2023-05-14T09:52:40.622Z,2.90
2023-05-14T09:55:08.261Z,2.60
2023-05-14T09:57:35.434Z,2.10
2023-05-14T10:00:02.489Z,2.45
2023-05-14T10:02:38.780Z,2.38
2023-05-14T10:05:06.889Z,5.18
2023-05-14T10:07:38.803Z,2.88
2023-05-14T10:10:08.695Z,3.30
2023-05-14T10:12:40.575Z,4.68
2023-05-14T10:15:16.588Z,4.30
2023-05-14T10:17:49.444Z,3.05
2023-05-14T10:20:17.454Z,4.75
2023-05-14T10:22:45.040Z,2.55
2023-05-14T10:25:12.564Z,4.40
2023-05-14T10:27:40.346Z,3.47
2023-05-14T10:30:12.721Z,2.28
2023-05-14T10:32:41.937Z,3.08
2023-05-14T10:35:25.416Z,3.92
2023-05-14T10:37:52.480Z,4.55
2023-05-14T10:40:23.612Z,3.42
2023-05-14T10:42:50.860Z,4.28
2023-05-14T10:45:17.867Z,3.45
2023-05-14T10:47:47.370Z,3.60
2023-05-14T10:50:15.709Z,4.15
2023-05-14T10:52:44.029Z,4.07
2023-05-14T10:55:14.583Z,3.50
2023-05-14T10:57:44.149Z,2.33
2023-05-14T11:00:12.561Z,3.92
2023-05-14T11:02:41.465Z,4.85
2023-05-14T11:05:11.611Z,4.15
2023-05-14T11:07:42.748Z,4.93
2023-05-14T11:10:15.247Z,4.57
2023-05-14T11:12:44.345Z,3.08
2023-05-14T11:15:22.300Z,4.28
2023-05-14T11:17:50.410Z,3.50
2023-05-14T11:20:18.254Z,3.53
2023-05-14T11:22:46.639Z,4.53
2023-05-14T11:25:14.902Z,5.25
2023-05-14T11:27:44.376Z,4.43
2023-05-14T11:30:19.455Z,3.45
2023-05-14T11:32:47.843Z,6.38
2023-05-14T11:35:15.470Z,5.03
2023-05-14T11:37:43.218Z,5.47
2023-05-14T11:40:16.872Z,3.25
2023-05-14T11:42:44.325Z,4.32
2023-05-14T11:45:12.595Z,4.00
2023-05-14T11:47:41.331Z,3.25
2023-05-14T11:50:09.545Z,3.70
2023-05-14T11:52:41.482Z,4.18
2023-05-14T11:55:12.841Z,4.32
2023-05-14T11:57:41.170Z,5.13
2023-05-14T12:00:21.378Z,3.47
2023-05-14T12:02:49.844Z,6.60
2023-05-14T12:05:17.255Z,6.55
2023-05-14T12:07:47.864Z,1.98
2023-05-14T12:10:15.461Z,4.10
2023-05-14T12:12:47.117Z,3.53
2023-05-14T12:15:15.256Z,3.97
2023-05-14T12:17:42.444Z,4.60
2023-05-14T12:20:11.034Z,2.88
2023-05-14T12:22:38.425Z,2.08
2023-05-14T12:25:12.692Z,2.92
2023-05-14T12:27:39.624Z,3.85
2023-05-14T12:32:41.056Z,3.50
2023-05-14T12:35:09.192Z,2.95
2023-05-14T12:37:37.465Z,3.95
2023-05-14T12:40:09.218Z,2.78
2023-05-14T12:42:36.597Z,2.13
2023-05-14T12:45:08.120Z,2.30
2023-05-14T12:47:36.498Z,1.10
2023-05-14T12:50:04.710Z,2.88
2023-05-14T12:52:38.718Z,2.28
2023-05-14T12:55:08.207Z,2.77
2023-05-14T12:57:35.726Z,2.78
2023-05-14T13:00:06.987Z,3.75
2023-05-14T13:02:43.007Z,2.33
2023-05-14T13:05:11.985Z,2.58
2023-05-14T13:07:39.233Z,2.28
2023-05-14T13:10:06.822Z,2.50
2023-05-14T13:12:33.992Z,1.63
2023-05-14T13:15:01.219Z,2.55
2023-05-14T13:17:28.287Z,4.38
2023-05-14T13:19:55.190Z,2.63
2023-05-14T13:22:22.089Z,1.60
2023-05-14T13:24:49.023Z,1.33
2023-05-14T13:27:16.187Z,3.47
2023-05-14T13:29:43.104Z,1.65
2023-05-14T13:32:10.392Z,2.03
2023-05-14T13:34:37.384Z,1.50
2023-05-14T13:37:04.527Z,2.00
2023-05-14T13:39:31.503Z,2.63
2023-05-14T13:41:58.436Z,5.95
2023-05-14T13:44:25.625Z,4.65
2023-05-14T13:46:52.857Z,3.33
2023-05-14T13:49:19.853Z,4.65
2023-05-14T13:51:46.805Z,2.00
2023-05-14T13:54:13.755Z,1.83
2023-05-14T13:56:40.747Z,2.50
2023-05-14T13:59:07.786Z,2.28
2023-05-14T14:01:34.734Z,4.22
2023-05-14T14:04:01.832Z,1.83
2023-05-14T14:06:31.338Z,3.70
2023-05-14T14:08:58.281Z,1.95
2023-05-14T14:11:25.584Z,2.92
2023-05-14T14:13:52.739Z,1.38
2023-05-14T14:16:19.656Z,1.67
2023-05-14T14:18:46.738Z,2.60
2023-05-14T14:21:14.311Z,3.42
2023-05-14T14:23:41.575Z,4.18
2023-05-14T14:26:08.609Z,3.30
2023-05-14T14:28:35.704Z,3.63
2023-05-14T14:31:03.008Z,1.92
2023-05-14T14:33:30.002Z,1.83
2023-05-14T14:35:57.087Z,1.50
2023-05-14T14:38:24.941Z,1.35
2023-05-14T14:40:51.973Z,1.55
2023-05-14T14:43:18.905Z,2.13
2023-05-14T14:45:48.228Z,2.08
2023-05-14T14:48:44.045Z,2.20
2023-05-14T14:51:11.377Z,2.40
2023-05-14T14:53:38.498Z,2.20
2023-05-14T14:56:05.932Z,2.42
2023-05-14T14:58:32.971Z,3.22
2023-05-14T15:01:01.286Z,2.67
2023-05-14T15:03:29.011Z,3.33
2023-05-14T15:05:56.080Z,2.38
2023-05-14T15:08:29.221Z,2.28
2023-05-14T15:10:56.998Z,4.40
2023-05-14T15:13:24.783Z,3.28
2023-05-14T15:15:52.560Z,4.28
2023-05-14T15:18:27.031Z,4.28
2023-05-14T15:20:54.070Z,3.03
2023-05-14T15:23:20.994Z,2.08
2023-05-14T15:25:49.377Z,2.90
2023-05-14T15:28:16.408Z,2.63
2023-05-14T15:30:43.406Z,6.63
2023-05-14T15:33:10.985Z,3.95
2023-05-14T15:35:38.091Z,5.68
2023-05-14T15:38:05.166Z,6.53
2023-05-14T15:40:33.270Z,5.75
2023-05-14T15:43:00.200Z,8.30
2023-05-14T15:45:27.080Z,16.65
2023-05-14T15:47:54.352Z,7.35
2023-05-14T15:50:21.873Z,6.53
2023-05-14T15:52:49.135Z,5.07
2023-05-14T15:55:16.115Z,6.63
2023-05-14T15:57:43.069Z,7.50
2023-05-14T16:00:11.035Z,7.57
2023-05-14T16:02:39.878Z,7.25
2023-05-14T16:05:08.275Z,6.93
2023-05-14T16:07:35.835Z,8.15
2023-05-14T16:10:03.295Z,6.88
2023-05-14T16:12:30.725Z,8.55
2023-05-14T16:14:57.816Z,7.32
2023-05-14T16:17:26.028Z,6.95
2023-05-14T16:19:54.651Z,7.97
2023-05-14T16:22:23.114Z,5.97
2023-05-14T16:24:50.019Z,5.63
2023-05-14T16:27:19.149Z,8.05
2023-05-14T16:29:46.148Z,6.25
2023-05-14T16:32:13.336Z,7.05
2023-05-14T16:34:40.608Z,8.55
2023-05-14T16:37:08.002Z,6.25
2023-05-14T16:39:34.893Z,7.18
2023-05-14T16:42:01.850Z,6.95
2023-05-14T16:44:28.861Z,7.18
2023-05-14T16:46:56.397Z,7.63
2023-05-14T16:49:23.422Z,8.57
2023-05-14T16:51:50.455Z,8.25
2023-05-14T16:54:17.429Z,7.25
2023-05-14T16:56:48.140Z,8.23
2023-05-14T16:59:16.532Z,7.45
2023-05-14T17:01:44.283Z,8.55
2023-05-14T17:04:11.397Z,7.60
2023-05-14T17:06:38.441Z,8.75
2023-05-14T17:09:05.552Z,7.90
2023-05-14T17:11:32.703Z,6.38
2023-05-14T17:13:59.773Z,6.90
2023-05-14T17:16:27.191Z,7.05
2023-05-14T17:18:54.201Z,6.80
2023-05-14T17:21:21.368Z,7.88
2023-05-14T17:23:48.304Z,6.88
2023-05-14T17:26:15.294Z,6.18
2023-05-14T17:28:42.235Z,17.75
2023-05-14T17:31:09.227Z,6.75
2023-05-14T17:33:36.207Z,6.05
2023-05-14T17:36:03.484Z,6.10
2023-05-14T17:38:30.638Z,5.72
2023-05-14T17:40:57.620Z,6.15
2023-05-14T17:43:24.785Z,10.80
2023-05-14T17:45:54.371Z,4.70
2023-05-14T17:48:23.148Z,5.55
2023-05-14T17:50:51.622Z,6.35
2023-05-14T17:53:18.786Z,7.28
2023-05-14T17:55:45.870Z,5.13
2023-05-14T17:58:15.242Z,5.88
2023-05-14T18:00:43.471Z,7.90
2023-05-14T18:03:11.332Z,8.18
2023-05-14T18:05:38.475Z,7.57
2023-05-14T18:08:05.801Z,7.68
2023-05-14T18:10:32.880Z,6.55
2023-05-14T18:12:59.859Z,6.78
2023-05-14T18:15:27.416Z,7.95
2023-05-14T18:17:54.647Z,6.47
2023-05-14T18:20:21.873Z,6.32
2023-05-14T18:22:50.503Z,6.05
2023-05-14T18:25:17.540Z,7.00
2023-05-14T18:27:45.301Z,6.05
2023-05-14T18:30:17.017Z,8.13
2023-05-14T18:32:45.034Z,7.97
2023-05-14T18:35:13.685Z,11.68
2023-05-14T18:37:41.028Z,7.13
2023-05-14T18:40:09.757Z,9.13
2023-05-14T18:42:36.734Z,6.88
2023-05-14T18:45:04.380Z,7.85
2023-05-14T18:47:33.615Z,8.43
2023-05-14T18:50:02.039Z,10.98
2023-05-14T18:52:29.521Z,7.38
2023-05-14T18:54:56.647Z,7.57
2023-05-14T18:57:23.695Z,8.38
2023-05-14T18:59:51.834Z,7.70
2023-05-14T19:02:18.899Z,8.70
2023-05-14T19:07:16.074Z,8.40
2023-05-14T19:09:43.055Z,7.60
2023-05-14T19:12:10.121Z,8.00
2023-05-14T19:14:37.204Z,7.03
2023-05-14T19:17:04.838Z,7.35
2023-05-14T19:19:32.132Z,7.05
2023-05-14T19:21:59.149Z,7.10
2023-05-14T19:24:26.225Z,8.27
2023-05-14T19:26:53.329Z,8.10
2023-05-14T19:29:20.425Z,9.23
2023-05-14T19:31:47.501Z,7.97
2023-05-14T19:34:14.627Z,8.45
2023-05-14T19:36:42.163Z,8.60
2023-05-14T19:39:09.661Z,7.82
2023-05-14T19:41:36.680Z,7.60
2023-05-14T19:44:03.725Z,7.45
2023-05-14T19:46:30.869Z,7.72
2023-05-14T19:48:57.886Z,7.40
2023-05-14T19:51:25.415Z,7.30
2023-05-14T19:53:52.402Z,6.47
2023-05-14T19:56:19.451Z,9.43
2023-05-14T19:58:46.439Z,6.68
2023-05-14T20:01:14.488Z,9.40
2023-05-14T20:03:41.872Z,8.73
2023-05-14T20:06:08.962Z,10.23
2023-05-14T20:08:35.933Z,8.10
2023-05-14T20:11:03.285Z,7.47
2023-05-14T20:13:35.458Z,7.35
2023-05-14T20:16:02.630Z,8.05
2023-05-14T20:18:29.795Z,8.73
2023-05-14T20:20:56.950Z,7.60
2023-05-14T20:23:24.048Z,8.35
2023-05-14T20:25:51.705Z,8.35
2023-05-14T20:28:18.760Z,6.53
2023-05-14T20:30:45.845Z,5.95
2023-05-14T20:33:13.853Z,6.95
2023-05-14T20:35:43.882Z,5.88
2023-05-14T20:38:12.769Z,6.28
2023-05-14T20:40:40.368Z,6.88
2023-05-14T20:43:07.391Z,7.22
2023-05-14T20:45:34.420Z,5.18
2023-05-14T20:48:01.501Z,5.93
2023-05-14T20:50:28.462Z,5.72
2023-05-14T20:52:55.737Z,6.15
2023-05-14T20:55:23.201Z,5.13
2023-05-14T20:57:50.576Z,6.68
2023-05-14T21:00:18.252Z,7.35
2023-05-14T21:02:45.662Z,5.40
2023-05-14T21:05:14.011Z,7.57
2023-05-14T21:07:41.110Z,5.20
2023-05-14T21:10:11.267Z,5.65
2023-05-14T21:12:38.243Z,5.70
2023-05-14T21:15:05.702Z,6.18
2023-05-14T21:17:32.763Z,6.32
2023-05-14T21:19:59.827Z,6.47
2023-05-14T21:22:27.529Z,5.78
2023-05-14T21:24:55.632Z,6.72
2023-05-14T21:27:23.032Z,5.95
2023-05-14T21:29:49.979Z,4.88
2023-05-14T21:32:17.115Z,5.65
2023-05-14T21:34:44.361Z,6.00
2023-05-14T21:37:11.372Z,7.38
2023-05-14T21:39:38.324Z,5.63
2023-05-14T21:42:05.501Z,8.27
2023-05-14T21:44:32.480Z,7.05
2023-05-14T21:46:59.638Z,6.55
2023-05-14T21:49:26.598Z,7.88
2023-05-14T21:51:54.553Z,6.53
2023-05-14T21:54:21.593Z,7.30
2023-05-14T21:56:48.684Z,5.25
2023-05-14T21:59:15.740Z,5.30
2023-05-14T22:01:56.102Z,5.32
2023-05-14T22:04:30.032Z,5.18
2023-05-14T22:06:56.985Z,5.82
2023-05-14T22:09:24.008Z,8.13
2023-05-14T22:11:50.895Z,6.20
2023-05-14T22:14:18.124Z,5.75
2023-05-14T22:16:45.253Z,7.30
2023-05-14T22:19:12.287Z,5.45
2023-05-14T22:21:39.410Z,5.40
2023-05-14T22:24:06.642Z,6.45
2023-05-14T22:26:34.379Z,5.72
2023-05-14T22:29:01.288Z,5.05
2023-05-14T22:31:28.282Z,5.07
2023-05-14T22:33:55.304Z,5.53
2023-05-14T22:36:22.306Z,6.88
2023-05-14T22:38:49.255Z,5.80
2023-05-14T22:41:17.557Z,5.07
2023-05-14T22:43:44.502Z,6.32
2023-05-14T22:46:11.473Z,5.13
2023-05-14T22:48:38.396Z,10.80
2023-05-14T22:51:05.529Z,6.22
2023-05-14T22:53:32.420Z,5.72
2023-05-14T22:55:59.461Z,5.18
2023-05-14T22:58:26.382Z,6.53
2023-05-14T23:00:53.286Z,4.88
2023-05-14T23:03:20.312Z,5.90
2023-05-14T23:05:47.255Z,6.72
2023-05-14T23:08:14.325Z,6.35
2023-05-14T23:10:41.322Z,6.25
2023-05-14T23:13:08.259Z,6.72
2023-05-14T23:15:35.216Z,6.85
2023-05-14T23:18:02.496Z,5.88
2023-05-14T23:20:29.527Z,7.03
2023-05-14T23:22:56.512Z,9.68
2023-05-14T23:25:23.524Z,7.78
2023-05-14T23:27:53.754Z,8.23
2023-05-14T23:30:20.850Z,6.13
2023-05-14T23:32:47.820Z,5.80
2023-05-14T23:35:14.831Z,7.18
2023-05-14T23:37:47.091Z,5.15
2023-05-14T23:40:15.538Z,5.05
2023-05-14T23:42:42.762Z,4.95
2023-05-14T23:45:10.188Z,7.82
2023-05-14T23:47:37.334Z,6.10
2023-05-14T23:50:04.759Z,5.40
2023-05-14T23:52:31.752Z,5.82
2023-05-14T23:54:58.684Z,5.80
2023-05-14T23:57:27.234Z,7.40
2023-05-14T23:59:54.137Z,6.68
